createdAt,value
2022-09-28T00:02:12.502Z,9.60
2022-09-28T00:04:39.138Z,9.70
2022-09-28T00:07:05.670Z,9.70
2022-09-28T00:09:32.254Z,9.70
2022-09-28T00:11:59.394Z,9.70
2022-09-28T00:14:26.323Z,9.70
2022-09-28T00:16:53.017Z,9.80
2022-09-28T00:19:19.714Z,9.70
2022-09-28T00:21:48.784Z,9.70
2022-09-28T00:24:25.198Z,9.70
2022-09-28T00:26:54.974Z,9.70
2022-09-28T00:29:26.861Z,9.70
2022-09-28T00:31:59.744Z,9.80
2022-09-28T00:34:31.721Z,9.80
2022-09-28T00:37:01.153Z,9.80
2022-09-28T00:39:27.934Z,9.80
2022-09-28T00:41:54.756Z,9.80
2022-09-28T00:44:24.008Z,9.70
2022-09-28T00:46:55.783Z,9.80
2022-09-28T00:49:28.364Z,9.70
2022-09-28T00:51:55.007Z,9.60
2022-09-28T00:54:22.034Z,9.50
2022-09-28T00:56:48.877Z,9.50
2022-09-28T00:59:15.878Z,9.50
2022-09-28T01:01:42.465Z,9.50
2022-09-28T01:04:08.999Z,9.50
2022-09-28T01:06:38.810Z,9.50
2022-09-28T01:09:07.508Z,9.40
2022-09-28T01:11:35.948Z,9.50
2022-09-28T01:14:03.622Z,9.50
2022-09-28T01:16:34.658Z,9.50
2022-09-28T01:19:03.419Z,9.50
2022-09-28T01:21:36.293Z,9.50
2022-09-28T01:24:10.913Z,9.50
2022-09-28T01:26:44.483Z,9.50
2022-09-28T01:29:15.781Z,9.60
2022-09-28T01:31:44.084Z,9.50
2022-09-28T01:34:16.354Z,9.50
2022-09-28T01:36:48.120Z,9.60
2022-09-28T01:39:31.181Z,9.60
2022-09-28T01:42:00.722Z,9.60
2022-09-28T01:44:27.932Z,9.60
2022-09-28T01:46:54.694Z,9.70
2022-09-28T01:49:25.019Z,9.70
2022-09-28T01:51:59.867Z,9.70
2022-09-28T01:54:38.606Z,9.80
2022-09-28T01:57:12.241Z,9.80
2022-09-28T01:59:41.270Z,9.80
2022-09-28T02:02:18.589Z,9.80
2022-09-28T02:04:47.574Z,9.80
2022-09-28T02:07:17.189Z,9.80
2022-09-28T02:09:50.102Z,9.80
2022-09-28T02:12:20.545Z,9.80
2022-09-28T02:14:49.030Z,9.80
2022-09-28T02:17:16.197Z,9.80
2022-09-28T02:19:43.147Z,9.80
2022-09-28T02:22:12.631Z,9.80
2022-09-28T02:24:44.940Z,9.70
2022-09-28T02:27:11.420Z,9.70
2022-09-28T02:29:40.371Z,9.70
2022-09-28T02:32:09.137Z,9.70
2022-09-28T02:34:35.744Z,9.70
2022-09-28T02:37:02.804Z,9.70
2022-09-28T02:39:29.586Z,9.70
2022-09-28T02:41:56.072Z,9.70
2022-09-28T02:44:37.192Z,9.70
2022-09-28T02:47:03.697Z,9.70
2022-09-28T02:49:33.231Z,9.70
2022-09-28T02:52:08.113Z,9.70
2022-09-28T02:54:36.757Z,9.70
2022-09-28T02:57:22.142Z,9.70
2022-09-28T02:59:52.925Z,9.70
2022-09-28T03:02:30.242Z,9.70
2022-09-28T03:05:09.598Z,9.60
2022-09-28T03:07:38.323Z,9.70
2022-09-28T03:10:07.983Z,9.60
2022-09-28T03:12:35.035Z,9.60
2022-09-28T03:15:11.405Z,9.60
2022-09-28T03:17:40.292Z,9.60
2022-09-28T03:20:07.070Z,9.60
2022-09-28T03:22:33.679Z,9.60
2022-09-28T03:25:05.221Z,9.60
2022-09-28T03:27:33.996Z,9.60
2022-09-28T03:30:02.949Z,9.60
2022-09-28T03:32:29.561Z,9.60
2022-09-28T03:34:56.165Z,9.60
2022-09-28T03:37:22.876Z,9.60
2022-09-28T03:39:51.937Z,9.60
2022-09-28T03:42:18.575Z,9.60
2022-09-28T03:44:45.101Z,9.60
2022-09-28T03:47:11.813Z,9.60
2022-09-28T03:49:38.597Z,9.60
2022-09-28T03:52:05.160Z,9.60
2022-09-28T03:54:31.657Z,9.60
2022-09-28T03:56:58.198Z,9.60
2022-09-28T03:59:24.956Z,9.60
2022-09-28T04:01:54.225Z,9.60
2022-09-28T04:04:20.883Z,9.60
2022-09-28T04:06:47.397Z,9.60
2022-09-28T04:09:14.389Z,9.60
2022-09-28T04:12:02.416Z,9.60
2022-09-28T04:14:27.597Z,9.60
2022-09-28T04:16:54.814Z,9.60
2022-09-28T04:19:22.093Z,9.60
2022-09-28T04:21:53.369Z,9.50
2022-09-28T04:24:22.187Z,9.50
2022-09-28T04:26:49.412Z,9.50
2022-09-28T04:29:19.277Z,9.50
2022-09-28T04:31:47.628Z,9.50
2022-09-28T04:34:17.132Z,9.40
2022-09-28T04:36:44.719Z,9.50
2022-09-28T04:39:19.812Z,9.40
2022-09-28T04:41:47.799Z,9.40
2022-09-28T04:44:14.551Z,9.40
2022-09-28T04:46:41.047Z,9.40
2022-09-28T04:49:09.566Z,9.40
2022-09-28T04:51:36.135Z,9.50
2022-09-28T04:54:05.125Z,9.50
2022-09-28T04:56:31.630Z,9.40
2022-09-28T04:59:00.312Z,9.40
2022-09-28T05:01:27.236Z,9.40
2022-09-28T05:03:53.999Z,9.40
2022-09-28T05:06:22.544Z,9.40
2022-09-28T05:08:51.799Z,9.40
2022-09-28T05:11:19.800Z,9.40
2022-09-28T05:13:50.241Z,9.30
2022-09-28T05:16:16.963Z,9.30
2022-09-28T05:18:43.510Z,9.30
2022-09-28T05:21:13.316Z,9.30
2022-09-28T05:23:40.229Z,9.20
2022-09-28T05:26:09.231Z,9.20
2022-09-28T05:28:35.788Z,9.20
2022-09-28T05:31:03.281Z,9.20
2022-09-28T05:33:30.927Z,9.20
2022-09-28T05:36:01.051Z,9.20
2022-09-28T05:38:28.876Z,9.20
2022-09-28T05:40:57.624Z,9.20
2022-09-28T05:43:24.278Z,9.20
2022-09-28T05:45:55.263Z,9.20
2022-09-28T05:48:22.643Z,9.20
2022-09-28T05:50:52.513Z,9.10
2022-09-28T05:53:19.621Z,9.10
2022-09-28T05:55:46.948Z,9.10
2022-09-28T05:58:18.495Z,9.10
2022-09-28T06:00:45.141Z,9.10
2022-09-28T06:03:12.596Z,9.20
2022-09-28T06:05:41.694Z,9.10
2022-09-28T06:08:10.278Z,9.20
2022-09-28T06:10:37.005Z,9.20
2022-09-28T06:13:06.445Z,9.20
2022-09-28T06:15:33.659Z,9.30
2022-09-28T06:18:00.206Z,9.20
2022-09-28T06:20:27.458Z,9.20
2022-09-28T06:22:54.353Z,9.20
2022-09-28T06:25:22.026Z,9.30
2022-09-28T06:27:58.962Z,9.30
2022-09-28T06:30:27.086Z,9.30
2022-09-28T06:32:54.975Z,9.30
2022-09-28T06:35:21.994Z,9.30
2022-09-28T06:37:48.692Z,9.30
2022-09-28T06:40:15.497Z,9.30
2022-09-28T06:42:42.099Z,9.30
2022-09-28T06:45:08.799Z,9.30
2022-09-28T06:47:35.402Z,9.30
2022-09-28T06:50:02.003Z,9.40
2022-09-28T06:52:28.570Z,9.40
2022-09-28T06:54:55.113Z,9.40
2022-09-28T06:57:21.643Z,9.40
2022-09-28T06:59:48.172Z,9.30
2022-09-28T07:02:14.748Z,9.40
2022-09-28T07:04:42.497Z,9.40
2022-09-28T07:07:10.414Z,9.40
2022-09-28T07:09:42.204Z,9.40
2022-09-28T07:12:13.401Z,9.40
2022-09-28T07:14:47.881Z,9.50
2022-09-28T07:17:15.295Z,9.50
2022-09-28T07:19:44.600Z,9.50
2022-09-28T07:22:18.401Z,9.60
2022-09-28T07:24:45.320Z,9.60
2022-09-28T07:27:11.862Z,9.60
2022-09-28T07:29:40.708Z,9.70
2022-09-28T07:32:08.563Z,9.70
2022-09-28T07:34:43.624Z,9.80
2022-09-28T07:37:11.660Z,9.80
2022-09-28T07:39:56.910Z,9.80
2022-09-28T07:42:23.970Z,9.80
2022-09-28T07:44:51.082Z,9.80
2022-09-28T07:47:19.113Z,9.80
2022-09-28T07:49:51.885Z,9.90
2022-09-28T07:52:18.526Z,9.90
2022-09-28T07:54:45.089Z,10.00
2022-09-28T07:57:11.599Z,10.00
2022-09-28T07:59:38.130Z,10.00
2022-09-28T08:02:04.889Z,10.00
2022-09-28T08:04:31.530Z,10.00
2022-09-28T08:07:00.467Z,10.00
2022-09-28T08:09:27.016Z,10.00
2022-09-28T08:11:55.913Z,10.00
2022-09-28T08:14:22.517Z,10.00
2022-09-28T08:16:53.255Z,10.00
2022-09-28T08:19:25.015Z,10.00
2022-09-28T08:21:51.603Z,10.00
2022-09-28T08:24:19.261Z,10.00
2022-09-28T08:26:45.940Z,10.00
2022-09-28T08:29:12.475Z,10.00
2022-09-28T08:31:39.044Z,9.90
2022-09-28T08:34:05.584Z,9.90
2022-09-28T08:36:32.314Z,9.90
2022-09-28T08:38:58.870Z,9.90
2022-09-28T08:41:31.560Z,9.90
2022-09-28T08:44:17.025Z,9.90
2022-09-28T08:46:45.492Z,9.90
2022-09-28T08:49:28.794Z,9.90
2022-09-28T08:51:55.354Z,10.00
2022-09-28T08:54:27.934Z,10.00
2022-09-28T08:56:56.991Z,10.00
2022-09-28T08:59:30.802Z,10.00
2022-09-28T09:02:03.430Z,10.10
2022-09-28T09:04:31.121Z,10.10
2022-09-28T09:07:06.970Z,10.20
2022-09-28T09:09:56.531Z,10.20
2022-09-28T09:12:28.507Z,10.20
2022-09-28T09:15:13.758Z,10.20
2022-09-28T09:17:40.686Z,10.10
2022-09-28T09:20:36.170Z,10.20
2022-09-28T09:23:20.737Z,10.20
2022-09-28T09:25:54.767Z,10.20
2022-09-28T09:28:27.207Z,10.20
2022-09-28T09:31:12.251Z,10.30
2022-09-28T09:33:44.717Z,10.30
2022-09-28T09:36:37.147Z,10.30
2022-09-28T09:39:06.469Z,10.40
2022-09-28T09:41:44.449Z,10.40
2022-09-28T09:44:20.978Z,10.50
2022-09-28T09:46:54.303Z,10.50
2022-09-28T09:49:23.585Z,10.60
2022-09-28T09:51:58.778Z,10.70
2022-09-28T09:54:34.309Z,10.70
2022-09-28T09:57:09.900Z,10.70
2022-09-28T09:59:38.475Z,10.70
2022-09-28T10:02:25.156Z,10.70
2022-09-28T10:04:59.685Z,10.70
2022-09-28T10:07:33.213Z,10.70
2022-09-28T10:10:01.439Z,10.70
2022-09-28T10:12:28.731Z,10.70
2022-09-28T10:14:55.994Z,10.80
2022-09-28T10:17:27.166Z,10.90
2022-09-28T10:19:54.768Z,11.00
2022-09-28T10:22:22.746Z,11.00
2022-09-28T10:24:50.966Z,11.10
2022-09-28T10:27:19.889Z,11.10
2022-09-28T10:29:59.975Z,11.10
2022-09-28T10:32:28.075Z,11.20
2022-09-28T10:35:11.585Z,11.20
2022-09-28T10:37:56.670Z,11.10
2022-09-28T10:40:30.047Z,11.10
2022-09-28T10:43:05.096Z,11.20
2022-09-28T10:45:34.959Z,11.20
2022-09-28T10:48:04.919Z,11.10
2022-09-28T10:50:31.593Z,11.10
2022-09-28T10:53:10.976Z,11.20
2022-09-28T10:55:39.665Z,11.20
2022-09-28T10:58:25.427Z,11.30
2022-09-28T11:00:55.031Z,11.30
2022-09-28T11:03:25.788Z,11.20
2022-09-28T11:05:56.720Z,11.20
2022-09-28T11:08:26.356Z,11.30
2022-09-28T11:11:03.247Z,11.30
2022-09-28T11:13:33.298Z,11.40
2022-09-28T11:15:59.866Z,11.50
2022-09-28T11:18:31.289Z,11.60
2022-09-28T11:21:13.831Z,11.70
2022-09-28T11:23:44.085Z,11.70
2022-09-28T11:26:18.202Z,11.70
2022-09-28T11:28:50.223Z,11.70
2022-09-28T11:31:23.737Z,11.80
2022-09-28T11:33:51.125Z,11.80
2022-09-28T11:36:38.738Z,11.70
2022-09-28T11:39:11.226Z,11.80
2022-09-28T11:41:57.709Z,11.80
2022-09-28T11:44:44.450Z,11.80
2022-09-28T11:47:29.900Z,11.80
2022-09-28T11:50:02.806Z,11.80
2022-09-28T11:52:36.438Z,11.80
2022-09-28T11:55:21.115Z,11.80
2022-09-28T11:57:50.445Z,11.80
2022-09-28T12:00:20.810Z,11.90
2022-09-28T12:03:00.040Z,12.00
2022-09-28T12:05:44.796Z,12.10
2022-09-28T12:08:18.624Z,12.20
2022-09-28T12:11:09.681Z,12.30
2022-09-28T12:13:41.096Z,12.40
2022-09-28T12:16:46.865Z,12.50
2022-09-28T12:19:07.242Z,12.60
2022-09-28T12:21:36.908Z,12.50
2022-09-28T12:24:09.548Z,12.50
2022-09-28T12:26:38.946Z,12.40
2022-09-28T12:29:10.845Z,12.40
2022-09-28T12:31:46.621Z,12.40
2022-09-28T12:34:13.712Z,12.40
2022-09-28T12:36:45.443Z,12.40
2022-09-28T12:39:27.103Z,12.40
2022-09-28T12:42:02.500Z,12.50
2022-09-28T12:44:43.857Z,12.60
2022-09-28T12:47:28.836Z,12.60
2022-09-28T12:53:11.574Z,12.60
2022-09-28T12:55:40.580Z,12.60
2022-09-28T12:58:26.372Z,12.50
2022-09-28T13:01:01.317Z,12.50
2022-09-28T13:03:31.567Z,12.60
2022-09-28T13:06:00.816Z,12.70
2022-09-28T13:08:30.389Z,12.70
2022-09-28T13:11:07.592Z,12.70
2022-09-28T13:13:56.217Z,12.70
2022-09-28T13:16:28.522Z,12.70
2022-09-28T13:19:13.893Z,12.70
2022-09-28T13:21:48.130Z,12.70
2022-09-28T13:24:32.313Z,12.70
2022-09-28T13:27:04.480Z,12.70
2022-09-28T13:29:31.993Z,12.70
2022-09-28T13:31:59.858Z,12.70
2022-09-28T13:34:32.203Z,12.70
2022-09-28T13:37:11.204Z,12.70
2022-09-28T13:39:46.500Z,12.80
2022-09-28T13:42:24.778Z,12.80
2022-09-28T13:44:51.393Z,12.70
2022-09-28T13:47:21.255Z,12.80
2022-09-28T13:49:58.411Z,12.80
2022-09-28T13:52:28.087Z,12.80
2022-09-28T13:55:02.933Z,12.80
2022-09-28T13:57:48.399Z,12.80
2022-09-28T14:00:18.307Z,12.80
2022-09-28T14:02:52.857Z,12.80
2022-09-28T14:05:22.482Z,12.80
2022-09-28T14:08:07.961Z,12.90
2022-09-28T14:10:51.575Z,12.90
2022-09-28T14:13:36.908Z,12.80
2022-09-28T14:16:21.240Z,12.80
2022-09-28T14:18:54.285Z,12.90
2022-09-28T14:21:39.810Z,12.90
2022-09-28T14:24:12.875Z,12.90
2022-09-28T14:26:41.685Z,13.00
2022-09-28T14:29:11.407Z,12.90
2022-09-28T14:31:41.186Z,12.90
2022-09-28T14:34:22.349Z,12.90
2022-09-28T14:37:07.429Z,13.00
2022-09-28T14:39:53.698Z,13.00
2022-09-28T14:42:24.584Z,13.00
2022-09-28T14:45:06.378Z,13.00
2022-09-28T14:47:33.943Z,12.90
2022-09-28T14:50:01.721Z,12.90
2022-09-28T14:53:00.492Z,12.90
2022-09-28T14:55:38.791Z,12.90
2022-09-28T14:58:07.998Z,12.90
2022-09-28T15:00:34.805Z,12.90
2022-09-28T15:03:03.320Z,12.80
2022-09-28T15:05:32.331Z,12.80
2022-09-28T15:08:01.791Z,12.80
2022-09-28T15:10:33.667Z,12.80
2022-09-28T15:13:01.791Z,12.80
2022-09-28T15:15:38.763Z,12.80
2022-09-28T15:18:27.482Z,12.70
2022-09-28T15:20:54.523Z,12.70
2022-09-28T15:23:27.570Z,12.80
2022-09-28T15:25:55.125Z,12.80
2022-09-28T15:28:23.273Z,12.70
2022-09-28T15:30:50.320Z,12.70
2022-09-28T15:33:51.937Z,12.70
2022-09-28T15:36:20.502Z,12.60
2022-09-28T15:38:53.022Z,12.60
2022-09-28T15:41:20.001Z,12.60
2022-09-28T15:44:03.278Z,12.70
2022-09-28T15:46:29.955Z,12.70
2022-09-28T15:49:00.156Z,12.70
2022-09-28T15:51:29.870Z,12.60
2022-09-28T15:54:29.074Z,12.60
2022-09-28T15:56:59.977Z,12.60
2022-09-28T15:59:38.113Z,12.60
2022-09-28T16:02:17.014Z,12.60
2022-09-28T16:04:58.916Z,12.50
2022-09-28T16:07:28.645Z,12.50
2022-09-28T16:10:01.367Z,12.40
2022-09-28T16:12:40.255Z,12.40
2022-09-28T16:15:12.077Z,12.40
2022-09-28T16:17:38.683Z,12.30
2022-09-28T16:20:18.812Z,12.30
2022-09-28T16:22:45.621Z,12.30
2022-09-28T16:25:17.839Z,12.30
2022-09-28T16:27:45.625Z,12.30
2022-09-28T16:30:21.262Z,12.30
2022-09-28T16:32:56.389Z,12.30
2022-09-28T16:35:30.457Z,12.30
2022-09-28T16:37:56.941Z,12.30
2022-09-28T16:40:25.949Z,12.30
2022-09-28T16:42:53.928Z,12.20
2022-09-28T16:45:21.554Z,12.20
2022-09-28T16:47:52.705Z,12.10
2022-09-28T16:50:20.454Z,12.20
2022-09-28T16:53:07.665Z,12.10
2022-09-28T16:55:40.721Z,12.10
2022-09-28T16:58:08.069Z,12.10
2022-09-28T17:00:37.002Z,12.10
2022-09-28T17:03:11.395Z,12.00
2022-09-28T17:05:40.067Z,12.00
2022-09-28T17:08:06.688Z,12.00
2022-09-28T17:10:56.063Z,12.00
2022-09-28T17:13:33.630Z,12.00
2022-09-28T17:16:01.476Z,11.90
2022-09-28T17:18:31.803Z,11.90
2022-09-28T17:20:59.840Z,11.90
2022-09-28T17:23:31.047Z,11.80
2022-09-28T17:25:58.902Z,11.80
2022-09-28T17:28:31.414Z,11.80
2022-09-28T17:30:58.199Z,11.80
2022-09-28T17:33:24.775Z,11.80
2022-09-28T17:35:52.348Z,11.80
2022-09-28T17:38:18.916Z,11.80
2022-09-28T17:40:46.802Z,11.80
2022-09-28T17:43:15.665Z,11.70
2022-09-28T17:45:44.789Z,11.80
2022-09-28T17:48:18.144Z,11.70
2022-09-28T17:50:46.661Z,11.70
2022-09-28T17:53:15.918Z,11.70
2022-09-28T17:55:44.970Z,11.70
2022-09-28T17:58:14.264Z,11.70
2022-09-28T18:00:40.788Z,11.70
2022-09-28T18:03:12.493Z,11.60
2022-09-28T18:05:39.024Z,11.60
2022-09-28T18:08:05.632Z,11.60
2022-09-28T18:10:34.479Z,11.60
2022-09-28T18:13:01.015Z,11.60
2022-09-28T18:15:27.627Z,11.60
2022-09-28T18:17:54.366Z,11.50
2022-09-28T18:20:20.920Z,11.50
2022-09-28T18:22:49.680Z,11.50
2022-09-28T18:25:16.275Z,11.50
2022-09-28T18:27:45.018Z,11.50
2022-09-28T18:30:11.653Z,11.50
2022-09-28T18:32:40.364Z,11.50
2022-09-28T18:35:08.204Z,11.40
2022-09-28T18:37:38.226Z,11.40
2022-09-28T18:40:05.228Z,11.40
2022-09-28T18:42:32.119Z,11.40
2022-09-28T18:44:58.709Z,11.40
2022-09-28T18:47:27.821Z,11.30
2022-09-28T18:49:54.395Z,11.30
2022-09-28T18:52:20.938Z,11.30
2022-09-28T18:54:50.160Z,11.20
2022-09-28T18:57:17.002Z,11.20
2022-09-28T18:59:45.910Z,11.20
2022-09-28T19:02:12.845Z,11.20
2022-09-28T19:04:39.880Z,11.20
2022-09-28T19:07:06.951Z,11.20
2022-09-28T19:09:36.470Z,11.10
2022-09-28T19:12:05.254Z,11.10
2022-09-28T19:14:31.798Z,11.00
2022-09-28T19:17:00.640Z,11.00
2022-09-28T19:19:29.053Z,11.00
2022-09-28T19:21:55.991Z,11.00
2022-09-28T19:24:25.390Z,11.00
2022-09-28T19:26:53.537Z,11.00
2022-09-28T19:29:20.305Z,11.00
2022-09-28T19:31:47.056Z,10.90
2022-09-28T19:34:14.437Z,10.90
2022-09-28T19:36:41.145Z,10.90
2022-09-28T19:39:09.994Z,10.90
2022-09-28T19:41:51.619Z,11.00
2022-09-28T19:44:25.621Z,10.90
2022-09-28T19:46:53.271Z,11.00
2022-09-28T19:49:21.127Z,11.00
2022-09-28T19:52:11.480Z,11.00
2022-09-28T19:54:36.766Z,11.00
2022-09-28T19:57:07.439Z,11.00
2022-09-28T19:59:35.533Z,10.90
2022-09-28T20:02:05.383Z,11.00
2022-09-28T20:04:31.887Z,11.00
2022-09-28T20:06:58.405Z,11.00
2022-09-28T20:09:24.994Z,11.00
2022-09-28T20:11:51.836Z,10.90
2022-09-28T20:14:22.489Z,10.90
2022-09-28T20:16:51.146Z,10.90
2022-09-28T20:19:21.049Z,10.90
2022-09-28T20:21:48.248Z,10.90
2022-09-28T20:24:17.535Z,10.90
2022-09-28T20:26:44.676Z,10.90
2022-09-28T20:29:11.705Z,10.90
2022-09-28T20:31:38.423Z,10.90
2022-09-28T20:34:05.811Z,10.80
2022-09-28T20:36:32.803Z,10.80
2022-09-28T20:39:03.117Z,10.80
2022-09-28T20:41:35.563Z,10.80
2022-09-28T20:44:05.628Z,10.80
2022-09-28T20:46:33.476Z,10.70
2022-09-28T20:49:00.204Z,10.70
2022-09-28T20:51:29.067Z,10.70
2022-09-28T20:53:56.569Z,10.70
2022-09-28T20:56:26.466Z,10.70
2022-09-28T20:58:53.422Z,10.70
2022-09-28T21:01:21.024Z,10.60
2022-09-28T21:03:48.827Z,10.50
2022-09-28T21:06:16.755Z,10.50
2022-09-28T21:08:45.774Z,10.50
2022-09-28T21:11:15.320Z,10.50
2022-09-28T21:13:42.822Z,10.50
2022-09-28T21:16:13.753Z,10.50
2022-09-28T21:18:40.662Z,10.40
2022-09-28T21:21:08.471Z,10.40
2022-09-28T21:23:35.348Z,10.40
2022-09-28T21:26:07.068Z,10.40
2022-09-28T21:28:34.376Z,10.40
2022-09-28T21:31:01.527Z,10.40
2022-09-28T21:33:30.564Z,10.30
2022-09-28T21:36:02.563Z,10.30
2022-09-28T21:38:31.720Z,10.30
2022-09-28T21:40:59.408Z,10.30
2022-09-28T21:43:29.182Z,10.30
2022-09-28T21:45:56.156Z,10.30
2022-09-28T21:48:23.671Z,10.30
2022-09-28T21:50:59.045Z,10.30
2022-09-28T21:53:28.969Z,10.30
2022-09-28T21:55:56.101Z,10.30
2022-09-28T21:58:23.712Z,10.20
2022-09-28T22:00:51.726Z,10.20
2022-09-28T22:03:23.115Z,10.20
2022-09-28T22:05:52.811Z,10.20
2022-09-28T22:08:19.804Z,10.20
2022-09-28T22:10:46.492Z,10.30
2022-09-28T22:13:13.007Z,10.30
2022-09-28T22:15:39.583Z,10.30
2022-09-28T22:18:06.190Z,10.20
2022-09-28T22:20:34.927Z,10.20
2022-09-28T22:23:01.438Z,10.20
2022-09-28T22:25:28.006Z,10.30
2022-09-28T22:27:59.396Z,10.20
2022-09-28T22:30:25.928Z,10.30
2022-09-28T22:32:52.510Z,10.20
2022-09-28T22:35:19.058Z,10.20
2022-09-28T22:37:45.561Z,10.20
2022-09-28T22:40:12.749Z,10.20
2022-09-28T22:42:39.391Z,10.10
2022-09-28T22:45:06.213Z,10.10
2022-09-28T22:47:32.766Z,10.10
2022-09-28T22:50:01.782Z,10.10
2022-09-28T22:52:30.819Z,10.10
2022-09-28T22:54:59.538Z,10.10
2022-09-28T22:57:26.082Z,10.10
2022-09-28T22:59:52.560Z,10.10
2022-09-28T23:02:19.184Z,10.10
2022-09-28T23:04:45.842Z,10.10
2022-09-28T23:07:12.485Z,10.00
2022-09-28T23:09:41.547Z,10.00
2022-09-28T23:12:08.283Z,10.00
2022-09-28T23:14:34.808Z,10.00
2022-09-28T23:17:01.296Z,10.00
2022-09-28T23:19:27.812Z,10.00
2022-09-28T23:21:54.432Z,10.00
2022-09-28T23:24:21.012Z,9.90
2022-09-28T23:26:47.665Z,9.90
2022-09-28T23:29:18.945Z,9.90
2022-09-28T23:31:48.083Z,9.90
2022-09-28T23:34:14.612Z,9.90
2022-09-28T23:36:41.216Z,9.90
2022-09-28T23:39:09.184Z,9.80
2022-09-28T23:41:38.275Z,9.80
2022-09-28T23:44:04.812Z,9.80
2022-09-28T23:46:33.877Z,9.80
2022-09-28T23:49:00.542Z,9.70
2022-09-28T23:51:27.303Z,9.70
2022-09-28T23:53:53.930Z,9.70
2022-09-28T23:56:22.674Z,9.70
2022-09-28T23:58:49.246Z,9.70
